Time;durP1;ratioP1;P1;durP2;ratioP2;P2;SDS_P1;SDS_P2;PMS_P1;PMS_P2;Temp;Humidity;BMP_temperature;BMP_pressure;BME280_temperature;BME280_humidity;BME280_pressure;Samples;Min_cycle;Max_cycle;Signal;HPM_P1;HPM_P2
2023/02/08 00:01:41;;;;;;;80.57;41.55;;;;;;;;;;4975799;28;20031;-71
2023/02/08 00:04:07;;;;;;;79.20;41.28;;;;;;;;;;4974384;28;20121;-71
2023/02/08 00:06:33;;;;;;;72.88;37.97;;;;;;;;;;4985815;28;20050;-71
2023/02/08 00:09:00;;;;;;;80.97;41.78;;;;;;;;;;4987951;28;20256;-71
2023/02/08 00:11:26;;;;;;;73.85;39.70;;;;;;;;;;4978544;28;20023;-69
2023/02/08 00:13:52;;;;;;;73.93;37.95;;;;;;;;;;4991302;28;20030;-69
2023/02/08 00:16:18;;;;;;;72.93;36.95;;;;;;;;;;4982363;28;20109;-70
2023/02/08 00:18:44;;;;;;;70.90;36.95;;;;;;;;;;4983155;28;20505;-70
2023/02/08 00:21:11;;;;;;;74.85;37.55;;;;;;;;;;4988988;28;20109;-69
2023/02/08 00:23:37;;;;;;;77.32;38.63;;;;;;;;;;4978078;28;20038;-70
2023/02/08 00:26:04;;;;;;;75.05;38.05;;;;;;;;;;4989162;28;20030;-70
2023/02/08 00:28:30;;;;;;;69.30;38.00;;;;;;;;;;4981462;28;20037;-70
2023/02/08 00:30:56;;;;;;;78.55;39.15;;;;;;;;;;4982114;28;20030;-70
2023/02/08 00:33:22;;;;;;;77.30;38.22;;;;;;;;;;4989227;28;20030;-70
2023/02/08 00:35:48;;;;;;;71.88;35.20;;;;;;;;;;4977280;28;20105;-71
2023/02/08 00:38:14;;;;;;;67.15;36.28;;;;;;;;;;4980500;28;20153;-70
2023/02/08 00:40:40;;;;;;;68.50;36.25;;;;;;;;;;5008706;22;20112;-69
2023/02/08 00:43:06;;;;;;;71.18;37.03;;;;;;;;;;4994268;28;20386;-70
2023/02/08 00:45:32;;;;;;;73.00;38.35;;;;;;;;;;4992241;28;20073;-71
2023/02/08 00:47:58;;;;;;;68.03;36.67;;;;;;;;;;4992971;28;20038;-70
2023/02/08 00:50:24;;;;;;;69.10;36.97;;;;;;;;;;4993657;28;20022;-70
2023/02/08 00:52:51;;;;;;;68.88;35.03;;;;;;;;;;4993470;28;20030;-70
2023/02/08 00:55:17;;;;;;;64.32;33.88;;;;;;;;;;4993005;28;20027;-70
2023/02/08 00:57:43;;;;;;;64.05;33.42;;;;;;;;;;4992672;28;20150;-70
2023/02/08 01:00:09;;;;;;;70.47;34.28;;;;;;;;;;4994086;28;20561;-70
2023/02/08 01:02:37;;;;;;;64.85;33.55;;;;;;;;;;4993486;28;20030;-71
2023/02/08 01:05:03;;;;;;;61.97;31.13;;;;;;;;;;4993599;28;20034;-70
2023/02/08 01:07:29;;;;;;;66.93;31.20;;;;;;;;;;4992591;28;20030;-70
2023/02/08 01:09:55;;;;;;;60.13;30.40;;;;;;;;;;4992974;28;20050;-72
2023/02/08 01:12:21;;;;;;;64.53;32.67;;;;;;;;;;4993222;28;20396;-70
2023/02/08 01:14:47;;;;;;;62.95;31.92;;;;;;;;;;4993285;28;20041;-70
2023/02/08 01:17:13;;;;;;;59.38;31.25;;;;;;;;;;4992464;28;20031;-70
2023/02/08 01:19:39;;;;;;;62.80;32.67;;;;;;;;;;4992543;28;20035;-70
2023/02/08 01:22:05;;;;;;;50.85;29.77;;;;;;;;;;4992621;28;20031;-69
2023/02/08 01:24:31;;;;;;;53.67;28.08;;;;;;;;;;4992786;28;20310;-70
2023/02/08 01:26:57;;;;;;;57.70;28.73;;;;;;;;;;4991380;28;20551;-69
2023/02/08 01:29:24;;;;;;;53.53;28.52;;;;;;;;;;4992585;28;20050;-69
2023/02/08 01:31:50;;;;;;;55.60;28.80;;;;;;;;;;4992594;28;20473;-69
2023/02/08 01:34:16;;;;;;;55.67;28.08;;;;;;;;;;4992643;28;20032;-70
2023/02/08 01:36:42;;;;;;;52.03;28.10;;;;;;;;;;4992543;28;20034;-72
2023/02/08 01:39:09;;;;;;;54.17;28.58;;;;;;;;;;4991848;28;20126;-70
2023/02/08 01:41:37;;;;;;;54.42;28.77;;;;;;;;;;4992484;28;20424;-71
2023/02/08 01:44:13;;;;;;;54.22;29.77;;;;;;;;;;4992721;28;20030;-70
2023/02/08 01:46:43;;;;;;;49.85;27.98;;;;;;;;;;4992463;28;20440;-70
2023/02/08 01:49:35;;;;;;;46.75;22.42;;;;;;;;;;4992152;28;20034;-70
2023/02/08 01:52:04;;;;;;;52.67;29.70;;;;;;;;;;4976053;28;20069;-70
2023/02/08 01:54:32;;;;;;;59.58;29.65;;;;;;;;;;4991568;28;20077;-69
2023/02/08 01:56:58;;;;;;;54.47;29.35;;;;;;;;;;4990872;28;20026;-70
2023/02/08 01:59:29;;;;;;;54.72;30.10;;;;;;;;;;4990775;28;20030;-70
2023/02/08 02:01:56;;;;;;;50.15;25.85;;;;;;;;;;4976466;28;20022;-72
2023/02/08 02:04:22;;;;;;;56.55;31.20;;;;;;;;;;4991893;28;20401;-71
2023/02/08 02:06:50;;;;;;;61.92;30.73;;;;;;;;;;4990986;28;20041;-69
2023/02/08 02:09:19;;;;;;;59.33;30.05;;;;;;;;;;4991299;28;20026;-71
2023/02/08 02:11:45;;;;;;;58.38;29.95;;;;;;;;;;4991608;28;20035;-70
2023/02/08 02:14:12;;;;;;;62.63;33.50;;;;;;;;;;4991787;28;20022;-70
2023/02/08 02:16:38;;;;;;;63.80;32.85;;;;;;;;;;4991762;28;20034;-70
2023/02/08 02:19:05;;;;;;;62.38;32.63;;;;;;;;;;4991322;28;20037;-70
2023/02/08 02:21:50;;;;;;;61.78;31.42;;;;;;;;;;4991769;28;20036;-70
2023/02/08 02:24:36;;;;;;;58.45;32.22;;;;;;;;;;4991657;28;20026;-70
2023/02/08 02:27:05;;;;;;;61.10;32.00;;;;;;;;;;4989958;28;20027;-70
2023/02/08 02:29:50;;;;;;;65.40;32.60;;;;;;;;;;4991921;28;20030;-71
2023/02/08 02:32:19;;;;;;;63.45;33.60;;;;;;;;;;4991870;28;20029;-71
2023/02/08 02:34:48;;;;;;;68.90;33.13;;;;;;;;;;4991789;28;20368;-72
2023/02/08 02:37:17;;;;;;;65.03;32.25;;;;;;;;;;4989723;28;20117;-70
2023/02/08 02:39:43;;;;;;;65.43;33.17;;;;;;;;;;4991852;28;20042;-70
2023/02/08 02:45:19;;;;;;;59.40;31.85;;;;;;;;;;4991891;28;20092;-70
2023/02/08 02:47:45;;;;;;;62.03;33.35;;;;;;;;;;4988979;28;20038;-69
2023/02/08 02:50:16;;;;;;;69.53;33.25;;;;;;;;;;4991473;28;20500;-69
2023/02/08 02:52:49;;;;;;;60.63;31.15;;;;;;;;;;4990125;28;20026;-70
2023/02/08 02:55:18;;;;;;;68.38;33.08;;;;;;;;;;4991221;28;20027;-70
2023/02/08 02:57:45;;;;;;;60.13;30.63;;;;;;;;;;4989002;28;20031;-71
2023/02/08 03:00:13;;;;;;;56.08;29.25;;;;;;;;;;4991599;28;20349;-69
2023/02/08 03:02:39;;;;;;;65.80;29.85;;;;;;;;;;4990257;28;20062;-70
2023/02/08 03:05:06;;;;;;;56.58;30.73;;;;;;;;;;4991706;28;20054;-70
2023/02/08 03:07:50;;;;;;;54.05;29.63;;;;;;;;;;4990596;28;20034;-70
2023/02/08 03:10:34;;;;;;;59.83;28.98;;;;;;;;;;4991181;28;20028;-70
2023/02/08 03:13:00;;;;;;;52.38;28.17;;;;;;;;;;4991137;28;20116;-70
2023/02/08 03:15:29;;;;;;;54.63;27.90;;;;;;;;;;4989840;28;20027;-70
2023/02/08 03:18:05;;;;;;;54.50;28.67;;;;;;;;;;4992849;28;20030;-70
2023/02/08 03:20:42;;;;;;;52.92;27.63;;;;;;;;;;4993801;28;20061;-70
2023/02/08 03:23:20;;;;;;;51.08;26.40;;;;;;;;;;4995051;28;20053;-70
2023/02/08 03:25:55;;;;;;;60.35;30.70;;;;;;;;;;4993515;28;20031;-70
2023/02/08 03:28:26;;;;;;;54.03;27.98;;;;;;;;;;4994347;28;20080;-70
2023/02/08 03:31:04;;;;;;;58.13;27.92;;;;;;;;;;4994895;28;20026;-71
2023/02/08 03:33:33;;;;;;;58.63;28.50;;;;;;;;;;4993509;28;20030;-70
2023/02/08 03:36:06;;;;;;;56.42;27.70;;;;;;;;;;4994707;28;20026;-70
2023/02/08 03:38:34;;;;;;;55.80;29.02;;;;;;;;;;4993061;28;20018;-71
2023/02/08 03:41:02;;;;;;;58.97;29.92;;;;;;;;;;4994856;28;20034;-70
2023/02/08 03:43:28;;;;;;;55.00;28.23;;;;;;;;;;4995199;28;20049;-71
2023/02/08 03:46:06;;;;;;;53.90;27.48;;;;;;;;;;4993098;28;20457;-70
2023/02/08 03:48:34;;;;;;;59.38;29.38;;;;;;;;;;4993883;28;20023;-70
2023/02/08 03:51:01;;;;;;;54.22;28.10;;;;;;;;;;4994903;28;20027;-70
2023/02/08 03:53:28;;;;;;;59.38;28.00;;;;;;;;;;4994503;28;20027;-69
2023/02/08 03:55:57;;;;;;;58.55;29.05;;;;;;;;;;4994392;28;20026;-70
2023/02/08 03:58:26;;;;;;;69.47;32.10;;;;;;;;;;4993651;28;20018;-70
2023/02/08 04:00:55;;;;;;;59.97;27.83;;;;;;;;;;4994593;28;20026;-71
2023/02/08 04:03:26;;;;;;;59.17;30.08;;;;;;;;;;4994684;28;20436;-70
2023/02/08 04:05:52;;;;;;;58.75;27.30;;;;;;;;;;4978326;28;20441;-70
2023/02/08 04:08:18;;;;;;;62.75;30.92;;;;;;;;;;4993329;28;20451;-70
2023/02/08 04:10:45;;;;;;;59.35;28.83;;;;;;;;;;4990808;28;20374;-68
2023/02/08 04:13:11;;;;;;;54.35;28.10;;;;;;;;;;4989199;28;20758;-70
2023/02/08 04:15:37;;;;;;;56.42;29.77;;;;;;;;;;4994420;28;20034;-70
2023/02/08 04:18:03;;;;;;;55.65;27.25;;;;;;;;;;4993586;28;20045;-70
2023/02/08 04:20:30;;;;;;;54.92;28.75;;;;;;;;;;4994222;28;20022;-70
2023/02/08 04:22:56;;;;;;;53.97;27.60;;;;;;;;;;4992980;28;20077;-70
2023/02/08 04:25:21;;;;;;;54.53;28.48;;;;;;;;;;4994075;28;20492;-70
2023/02/08 04:27:48;;;;;;;55.53;27.75;;;;;;;;;;4991563;28;20069;-69
2023/02/08 04:30:14;;;;;;;55.72;27.48;;;;;;;;;;4992957;28;20124;-70
2023/02/08 04:32:40;;;;;;;57.05;27.23;;;;;;;;;;4994566;28;20025;-70
2023/02/08 04:35:06;;;;;;;57.85;28.05;;;;;;;;;;4993063;28;20022;-70
2023/02/08 04:37:32;;;;;;;59.90;27.40;;;;;;;;;;4993014;28;20034;-70
2023/02/08 04:39:58;;;;;;;52.47;26.98;;;;;;;;;;4993607;28;20022;-70
2023/02/08 04:42:25;;;;;;;54.63;28.27;;;;;;;;;;4993748;28;20030;-70
2023/02/08 04:44:51;;;;;;;51.05;26.40;;;;;;;;;;4992253;28;20106;-70
2023/02/08 04:47:17;;;;;;;51.60;27.52;;;;;;;;;;4991554;28;20034;-69
2023/02/08 04:49:43;;;;;;;55.20;26.98;;;;;;;;;;4993289;28;20027;-70
2023/02/08 04:52:09;;;;;;;55.22;27.60;;;;;;;;;;4992137;28;20434;-70
2023/02/08 04:54:35;;;;;;;52.80;28.08;;;;;;;;;;4992008;28;20022;-70
2023/02/08 04:57:01;;;;;;;48.17;25.50;;;;;;;;;;4992909;28;20084;-70
2023/02/08 04:59:27;;;;;;;57.08;27.08;;;;;;;;;;4991219;28;20065;-70
2023/02/08 05:01:53;;;;;;;57.33;29.05;;;;;;;;;;4991716;28;20392;-70
2023/02/08 05:04:19;;;;;;;62.30;29.67;;;;;;;;;;4993473;28;20022;-70
2023/02/08 05:06:45;;;;;;;54.92;27.83;;;;;;;;;;4993085;28;20027;-70
2023/02/08 05:09:12;;;;;;;63.58;28.65;;;;;;;;;;4992345;28;20455;-70
2023/02/08 05:11:38;;;;;;;61.53;30.27;;;;;;;;;;4992958;28;20061;-69
2023/02/08 05:14:04;;;;;;;68.43;30.17;;;;;;;;;;4991329;28;20054;-70
2023/02/08 05:16:30;;;;;;;65.40;30.73;;;;;;;;;;4993224;28;20031;-70
2023/02/08 05:18:56;;;;;;;71.32;32.50;;;;;;;;;;4992343;28;20370;-70
2023/02/08 05:21:22;;;;;;;71.90;32.70;;;;;;;;;;4991474;28;20546;-71
2023/02/08 05:23:49;;;;;;;65.82;30.70;;;;;;;;;;4992475;28;20043;-71
2023/02/08 05:26:16;;;;;;;66.15;32.03;;;;;;;;;;4993131;28;20535;-71
2023/02/08 05:28:42;;;;;;;71.55;33.63;;;;;;;;;;4991919;28;20030;-71
2023/02/08 05:31:18;;;;;;;66.68;30.90;;;;;;;;;;4992660;28;20034;-70
2023/02/08 05:33:45;;;;;;;67.47;32.45;;;;;;;;;;4992396;28;20026;-70
2023/02/08 05:36:10;;;;;;;70.20;33.47;;;;;;;;;;4992539;28;20076;-70
2023/02/08 05:38:36;;;;;;;68.55;32.55;;;;;;;;;;4991762;28;20105;-70
2023/02/08 05:41:03;;;;;;;68.70;33.08;;;;;;;;;;4992315;28;20039;-70
2023/02/08 05:43:29;;;;;;;64.45;32.95;;;;;;;;;;4992306;28;20067;-71
2023/02/08 05:45:55;;;;;;;70.43;34.42;;;;;;;;;;4992626;28;20042;-70
2023/02/08 05:48:21;;;;;;;73.00;34.05;;;;;;;;;;4991714;28;20385;-70
2023/02/08 05:50:47;;;;;;;68.40;32.67;;;;;;;;;;4992594;28;20018;-71
2023/02/08 05:53:13;;;;;;;78.63;34.40;;;;;;;;;;4992351;28;20030;-70
2023/02/08 05:55:39;;;;;;;68.47;33.22;;;;;;;;;;4992602;28;20184;-70
2023/02/08 05:58:05;;;;;;;69.93;32.35;;;;;;;;;;4992165;28;20034;-70
2023/02/08 06:00:31;;;;;;;69.30;33.78;;;;;;;;;;4993519;28;20027;-70
2023/02/08 06:02:57;;;;;;;67.88;32.65;;;;;;;;;;4991266;28;20049;-70
2023/02/08 06:05:23;;;;;;;60.55;30.45;;;;;;;;;;4992296;28;20037;-69
2023/02/08 06:07:49;;;;;;;66.75;33.10;;;;;;;;;;4991069;28;20018;-70
2023/02/08 06:10:15;;;;;;;73.13;33.53;;;;;;;;;;4991225;28;20033;-70
2023/02/08 06:12:41;;;;;;;79.43;35.75;;;;;;;;;;4991961;28;20036;-68
2023/02/08 06:15:08;;;;;;;66.10;33.03;;;;;;;;;;4991665;28;20026;-70
2023/02/08 06:17:34;;;;;;;74.20;35.70;;;;;;;;;;4990808;28;20409;-70
2023/02/08 06:20:00;;;;;;;67.43;31.83;;;;;;;;;;4991619;28;20524;-71
2023/02/08 06:22:26;;;;;;;72.53;34.15;;;;;;;;;;4991730;28;20031;-71
2023/02/08 06:24:52;;;;;;;69.65;31.77;;;;;;;;;;4991918;28;20062;-72
2023/02/08 06:27:18;;;;;;;72.88;34.08;;;;;;;;;;4989906;28;20105;-71
2023/02/08 06:29:43;;;;;;;75.72;32.92;;;;;;;;;;4992193;28;20026;-70
2023/02/08 06:32:10;;;;;;;64.45;31.80;;;;;;;;;;4992485;28;20267;-70
2023/02/08 06:34:36;;;;;;;73.75;35.75;;;;;;;;;;4991529;28;20121;-70
2023/02/08 06:37:04;;;;;;;64.35;30.90;;;;;;;;;;4991175;28;20031;-70
2023/02/08 06:39:30;;;;;;;74.85;31.83;;;;;;;;;;4991352;28;20041;-71
2023/02/08 06:41:56;;;;;;;70.22;32.42;;;;;;;;;;5014568;22;20050;-69
2023/02/08 06:44:22;;;;;;;69.97;33.60;;;;;;;;;;4991986;28;20030;-72
2023/02/08 06:46:48;;;;;;;68.00;33.83;;;;;;;;;;4990042;28;20444;-71
2023/02/08 06:49:14;;;;;;;66.55;31.58;;;;;;;;;;4990779;28;20048;-69
2023/02/08 06:51:40;;;;;;;73.43;34.72;;;;;;;;;;4990932;28;20034;-70
2023/02/08 06:54:06;;;;;;;76.53;36.88;;;;;;;;;;4991641;28;20026;-70
2023/02/08 06:56:33;;;;;;;76.03;36.22;;;;;;;;;;4991265;28;20063;-70
2023/02/08 06:58:59;;;;;;;75.60;35.13;;;;;;;;;;4990580;28;20041;-71
2023/02/08 07:01:25;;;;;;;75.68;33.88;;;;;;;;;;4988486;28;20026;-72
2023/02/08 07:03:51;;;;;;;75.72;36.20;;;;;;;;;;4989585;28;20409;-71
2023/02/08 07:06:18;;;;;;;74.88;34.55;;;;;;;;;;4989558;28;20037;-70
2023/02/08 07:08:45;;;;;;;72.18;34.65;;;;;;;;;;4989000;28;20034;-70
2023/02/08 07:11:13;;;;;;;77.07;35.72;;;;;;;;;;4989533;28;20034;-70
2023/02/08 07:13:39;;;;;;;72.40;35.08;;;;;;;;;;4987198;28;20058;-69
2023/02/08 07:16:06;;;;;;;67.80;34.88;;;;;;;;;;4991132;28;20472;-70
2023/02/08 07:18:32;;;;;;;69.28;32.63;;;;;;;;;;4990321;28;20018;-69
2023/02/08 07:20:58;;;;;;;69.85;34.63;;;;;;;;;;4988719;28;20049;-70
2023/02/08 07:23:24;;;;;;;64.70;32.92;;;;;;;;;;4987448;28;20333;-71
2023/02/08 07:26:16;;;;;;;61.17;30.45;;;;;;;;;;4988786;28;20049;-69
2023/02/08 07:28:43;;;;;;;61.17;32.05;;;;;;;;;;4986667;28;20054;-69
2023/02/08 07:31:10;;;;;;;61.53;32.00;;;;;;;;;;4989582;28;20105;-70
2023/02/08 07:33:36;;;;;;;68.90;34.50;;;;;;;;;;4988069;28;20022;-70
2023/02/08 07:36:04;;;;;;;69.32;33.42;;;;;;;;;;4988517;28;20027;-68
2023/02/08 07:38:30;;;;;;;73.43;34.40;;;;;;;;;;4989372;28;20118;-70
2023/02/08 07:41:00;;;;;;;63.72;30.05;;;;;;;;;;4989468;28;20434;-70
2023/02/08 07:43:26;;;;;;;46.67;24.93;;;;;;;;;;4991268;28;20088;-70
2023/02/08 07:45:52;;;;;;;65.88;35.20;;;;;;;;;;4990781;28;20762;-70
2023/02/08 07:48:18;;;;;;;69.63;34.10;;;;;;;;;;4990445;28;20030;-70
2023/02/08 07:50:44;;;;;;;69.07;36.30;;;;;;;;;;4991155;28;20113;-70
2023/02/08 07:53:10;;;;;;;73.43;34.67;;;;;;;;;;4991110;28;20097;-70
2023/02/08 07:55:36;;;;;;;70.93;36.58;;;;;;;;;;4990963;28;20473;-69
2023/02/08 07:58:05;;;;;;;74.03;37.90;;;;;;;;;;4989123;28;20038;-70
2023/02/08 08:00:31;;;;;;;71.28;35.35;;;;;;;;;;4991436;28;20030;-71
2023/02/08 08:02:57;;;;;;;62.25;33.50;;;;;;;;;;4991179;28;20481;-70
2023/02/08 08:05:23;;;;;;;69.05;34.65;;;;;;;;;;4995145;28;20037;-72
2023/02/08 08:07:49;;;;;;;65.85;33.88;;;;;;;;;;4994490;28;20054;-71
2023/02/08 08:10:15;;;;;;;71.88;35.97;;;;;;;;;;4995329;28;20543;-71
2023/02/08 08:12:41;;;;;;;74.13;35.30;;;;;;;;;;4995175;28;20062;-72
2023/02/08 08:15:07;;;;;;;71.35;35.35;;;;;;;;;;4995976;28;20451;-70
2023/02/08 08:17:33;;;;;;;71.45;35.95;;;;;;;;;;4993270;28;20519;-71
2023/02/08 08:19:59;;;;;;;68.53;35.85;;;;;;;;;;4992979;28;20362;-71
2023/02/08 08:22:25;;;;;;;78.07;36.83;;;;;;;;;;4993472;28;20031;-70
2023/02/08 08:24:51;;;;;;;68.85;35.50;;;;;;;;;;4993701;28;20080;-71
2023/02/08 08:27:17;;;;;;;69.00;34.50;;;;;;;;;;4993755;28;20830;-71
2023/02/08 08:29:43;;;;;;;65.55;33.13;;;;;;;;;;4994934;28;20031;-71
2023/02/08 08:32:10;;;;;;;67.38;34.88;;;;;;;;;;4994971;28;20026;-71
2023/02/08 08:34:36;;;;;;;66.22;34.55;;;;;;;;;;4994932;28;20395;-71
2023/02/08 08:37:02;;;;;;;73.97;34.28;;;;;;;;;;4993733;28;20520;-70
2023/02/08 08:39:28;;;;;;;68.05;35.67;;;;;;;;;;4993826;28;20033;-70
2023/02/08 08:41:58;;;;;;;71.75;35.28;;;;;;;;;;4992785;28;20399;-70
2023/02/08 08:44:24;;;;;;;69.13;35.45;;;;;;;;;;4992701;28;20076;-69
2023/02/08 08:46:50;;;;;;;71.60;36.53;;;;;;;;;;4993332;28;20019;-71
2023/02/08 08:49:16;;;;;;;71.95;35.20;;;;;;;;;;4993231;28;20437;-71
2023/02/08 08:51:42;;;;;;;70.32;35.67;;;;;;;;;;4992820;28;20125;-72
2023/02/08 08:54:08;;;;;;;66.85;34.05;;;;;;;;;;4992946;28;20033;-61
2023/02/08 08:56:34;;;;;;;70.03;35.60;;;;;;;;;;4993286;28;20038;-63
2023/02/08 08:59:00;;;;;;;68.75;35.13;;;;;;;;;;4993077;28;20036;-74
2023/02/08 09:01:26;;;;;;;67.90;34.38;;;;;;;;;;4994570;28;20066;-73
2023/02/08 09:03:52;;;;;;;67.85;33.65;;;;;;;;;;4994261;28;20026;-73
2023/02/08 09:06:18;;;;;;;71.63;36.25;;;;;;;;;;4994715;28;20029;-71
2023/02/08 09:08:44;;;;;;;65.35;33.42;;;;;;;;;;4993702;28;20037;-70
2023/02/08 09:11:11;;;;;;;62.28;33.67;;;;;;;;;;4994163;28;20035;-73
2023/02/08 09:13:38;;;;;;;67.25;34.33;;;;;;;;;;4992476;28;20121;-71
2023/02/08 09:16:05;;;;;;;70.05;34.15;;;;;;;;;;4993059;28;20022;-71
2023/02/08 09:18:31;;;;;;;56.92;29.40;;;;;;;;;;4993168;28;20019;-72
2023/02/08 09:20:57;;;;;;;53.47;28.48;;;;;;;;;;4993548;28;20022;-72
2023/02/08 09:23:23;;;;;;;57.03;29.08;;;;;;;;;;4993188;28;20492;-73
2023/02/08 09:25:52;;;;;;;60.97;33.53;;;;;;;;;;4993153;28;20026;-72
2023/02/08 09:28:20;;;;;;;57.90;30.33;;;;;;;;;;4992676;28;20018;-70
2023/02/08 09:30:46;;;;;;;59.38;31.15;;;;;;;;;;4993409;28;20057;-74
2023/02/08 09:33:12;;;;;;;54.65;28.65;;;;;;;;;;4993265;28;20026;-73
2023/02/08 09:35:38;;;;;;;55.20;27.98;;;;;;;;;;4991949;28;20041;-72
2023/02/08 09:38:04;;;;;;;54.83;28.90;;;;;;;;;;4992178;28;20022;-71
2023/02/08 09:40:40;;;;;;;49.20;27.25;;;;;;;;;;4989698;28;20039;-69
2023/02/08 09:43:10;;;;;;;53.00;27.67;;;;;;;;;;4991594;28;20548;-71
2023/02/08 09:45:42;;;;;;;44.33;24.40;;;;;;;;;;4992752;28;20030;-71
2023/02/08 09:48:28;;;;;;;51.05;26.25;;;;;;;;;;4990717;28;20496;-70
2023/02/08 09:50:54;;;;;;;46.63;25.63;;;;;;;;;;4992905;28;20481;-70
2023/02/08 09:53:34;;;;;;;40.33;22.20;;;;;;;;;;4992728;28;20109;-72
2023/02/08 09:56:09;;;;;;;32.33;17.60;;;;;;;;;;4978247;28;20034;-71
2023/02/08 09:58:45;;;;;;;44.65;23.50;;;;;;;;;;4999651;28;20027;-72
2023/02/08 10:01:20;;;;;;;41.08;22.55;;;;;;;;;;5002265;28;20026;-73
2023/02/08 10:03:47;;;;;;;41.10;21.40;;;;;;;;;;5000058;28;20086;-72
2023/02/08 10:06:14;;;;;;;40.17;22.88;;;;;;;;;;4994860;28;20113;-71
2023/02/08 10:08:44;;;;;;;44.97;23.25;;;;;;;;;;4992991;28;20085;-72
2023/02/08 10:11:29;;;;;;;35.22;21.05;;;;;;;;;;4993067;28;20100;-73
2023/02/08 10:14:24;;;;;;;38.53;20.13;;;;;;;;;;4977003;28;20026;-71
2023/02/08 10:17:00;;;;;;;35.67;19.45;;;;;;;;;;4984108;28;20053;-72
2023/02/08 10:19:43;;;;;;;40.28;21.98;;;;;;;;;;4991899;28;20050;-72
2023/02/08 10:22:28;;;;;;;35.55;19.95;;;;;;;;;;4992212;28;20065;-69
2023/02/08 10:25:08;;;;;;;42.08;19.88;;;;;;;;;;4979890;28;20245;-71
2023/02/08 10:27:39;;;;;;;37.92;20.90;;;;;;;;;;4991048;28;20035;-69
2023/02/08 10:30:12;;;;;;;38.95;20.67;;;;;;;;;;4992558;28;20019;-70
2023/02/08 10:32:56;;;;;;;34.00;18.40;;;;;;;;;;4990378;28;20022;-70
2023/02/08 10:35:25;;;;;;;39.80;19.30;;;;;;;;;;4990790;28;20547;-70
2023/02/08 10:37:52;;;;;;;40.58;20.35;;;;;;;;;;4988970;28;20034;-70
2023/02/08 10:40:19;;;;;;;37.67;21.13;;;;;;;;;;4990835;28;20438;-70
2023/02/08 10:42:47;;;;;;;41.40;21.58;;;;;;;;;;4989384;28;20042;-70
2023/02/08 10:45:13;;;;;;;38.83;21.25;;;;;;;;;;4990773;28;20030;-69
2023/02/08 10:47:45;;;;;;;41.38;21.33;;;;;;;;;;4991120;28;20507;-70
2023/02/08 10:50:30;;;;;;;40.42;20.90;;;;;;;;;;4990714;28;20038;-70
2023/02/08 10:52:56;;;;;;;38.67;20.17;;;;;;;;;;4991898;28;20035;-70
2023/02/08 10:55:22;;;;;;;35.42;20.52;;;;;;;;;;4991987;28;20400;-70
2023/02/08 10:57:51;;;;;;;33.35;18.90;;;;;;;;;;4991193;28;20026;-70
2023/02/08 11:00:23;;;;;;;38.78;20.50;;;;;;;;;;4991919;28;20030;-72
2023/02/08 11:02:51;;;;;;;35.95;20.83;;;;;;;;;;4992241;28;20377;-71
2023/02/08 11:05:19;;;;;;;33.35;18.65;;;;;;;;;;4991608;28;20081;-70
2023/02/08 11:07:45;;;;;;;42.80;20.95;;;;;;;;;;4989585;28;20081;-71
2023/02/08 11:10:20;;;;;;;37.15;20.48;;;;;;;;;;4991999;28;20034;-70
2023/02/08 11:12:57;;;;;;;35.70;20.63;;;;;;;;;;4991945;28;20316;-71
2023/02/08 11:15:25;;;;;;;36.53;20.27;;;;;;;;;;4991532;28;20551;-70
2023/02/08 11:17:56;;;;;;;38.53;20.98;;;;;;;;;;4990981;28;20034;-71
2023/02/08 11:20:24;;;;;;;40.80;20.50;;;;;;;;;;4989635;28;20034;-70
2023/02/08 11:22:50;;;;;;;36.40;21.50;;;;;;;;;;4989694;28;20122;-70
2023/02/08 11:25:33;;;;;;;39.95;20.60;;;;;;;;;;4989856;28;20101;-68
2023/02/08 11:28:00;;;;;;;39.05;20.63;;;;;;;;;;4988955;28;20485;-71
2023/02/08 11:30:26;;;;;;;34.35;19.58;;;;;;;;;;4989549;28;20037;-69
2023/02/08 11:33:14;;;;;;;36.42;18.98;;;;;;;;;;4988627;28;20053;-71
2023/02/08 11:35:40;;;;;;;34.58;19.10;;;;;;;;;;4991642;28;20057;-69
2023/02/08 11:38:06;;;;;;;34.47;19.52;;;;;;;;;;4991797;28;20560;-70
2023/02/08 11:40:37;;;;;;;35.90;17.98;;;;;;;;;;4995387;28;20034;-71
2023/02/08 11:43:03;;;;;;;36.28;18.25;;;;;;;;;;4994999;28;20058;-71
2023/02/08 11:45:29;;;;;;;36.60;18.88;;;;;;;;;;4993892;28;20482;-70
2023/02/08 11:47:55;;;;;;;30.73;17.17;;;;;;;;;;4994555;28;20110;-71
2023/02/08 11:50:25;;;;;;;34.70;19.20;;;;;;;;;;4995543;28;20040;-68
2023/02/08 11:52:56;;;;;;;27.88;15.02;;;;;;;;;;4995434;28;20048;-70
2023/02/08 11:55:27;;;;;;;32.38;18.00;;;;;;;;;;4994097;28;20030;-69
2023/02/08 11:57:55;;;;;;;32.05;16.75;;;;;;;;;;4994177;28;20562;-68
2023/02/08 12:00:22;;;;;;;30.63;17.02;;;;;;;;;;4995257;28;20030;-70
2023/02/08 12:02:49;;;;;;;34.10;17.35;;;;;;;;;;4995062;28;20026;-70
2023/02/08 12:05:17;;;;;;;30.00;17.27;;;;;;;;;;4995448;28;20100;-69
2023/02/08 12:08:02;;;;;;;34.88;18.17;;;;;;;;;;4994131;28;20022;-70
2023/02/08 12:10:36;;;;;;;34.25;17.45;;;;;;;;;;4995009;28;20032;-70
2023/02/08 12:13:02;;;;;;;33.03;16.50;;;;;;;;;;4994634;28;20031;-70
2023/02/08 12:15:37;;;;;;;32.83;17.70;;;;;;;;;;4994819;28;20023;-70
2023/02/08 12:18:06;;;;;;;31.20;15.70;;;;;;;;;;4992401;28;20038;-69
2023/02/08 12:20:35;;;;;;;32.33;17.58;;;;;;;;;;4994595;28;20034;-69
2023/02/08 12:23:07;;;;;;;33.10;17.83;;;;;;;;;;4994571;28;20543;-68
2023/02/08 12:25:51;;;;;;;33.58;18.05;;;;;;;;;;4994655;28;20041;-69
2023/02/08 12:28:25;;;;;;;32.80;18.10;;;;;;;;;;4993585;28;20049;-70
2023/02/08 12:31:17;;;;;;;30.52;16.27;;;;;;;;;;4994285;28;20416;-71
2023/02/08 12:33:49;;;;;;;31.75;16.05;;;;;;;;;;4990434;28;20039;-69
2023/02/08 12:36:15;;;;;;;32.90;16.60;;;;;;;;;;4994243;28;20386;-69
2023/02/08 12:41:39;;;;;;;33.05;16.70;;;;;;;;;;5010039;22;20040;-69
2023/02/08 12:44:08;;;;;;;30.50;16.77;;;;;;;;;;4973855;28;20054;-68
2023/02/08 12:46:49;;;;;;;35.97;18.60;;;;;;;;;;4974182;28;20035;-71
2023/02/08 12:49:31;;;;;;;34.85;18.02;;;;;;;;;;4972773;28;20030;-69
2023/02/08 12:52:00;;;;;;;34.47;18.02;;;;;;;;;;4974045;28;20461;-68
2023/02/08 12:54:35;;;;;;;34.35;17.98;;;;;;;;;;4974461;28;20034;-69
2023/02/08 12:57:02;;;;;;;35.60;18.35;;;;;;;;;;4973813;28;20442;-69
2023/02/08 12:59:39;;;;;;;40.00;17.30;;;;;;;;;;4974004;28;20035;-71
2023/02/08 13:02:26;;;;;;;31.20;16.08;;;;;;;;;;4974648;28;20037;-69
2023/02/08 13:04:53;;;;;;;29.60;15.43;;;;;;;;;;4973846;28;20027;-70
2023/02/08 13:07:23;;;;;;;32.78;15.73;;;;;;;;;;4973509;28;20558;-70
2023/02/08 13:09:58;;;;;;;30.10;15.20;;;;;;;;;;4972867;28;20034;-69
2023/02/08 13:12:33;;;;;;;30.80;17.25;;;;;;;;;;4973999;28;20043;-68
2023/02/08 13:15:14;;;;;;;36.63;17.05;;;;;;;;;;4972806;28;20478;-70
2023/02/08 13:17:44;;;;;;;33.47;17.20;;;;;;;;;;4971999;28;20038;-70
2023/02/08 13:20:22;;;;;;;26.02;14.57;;;;;;;;;;4974323;28;20042;-71
2023/02/08 13:22:50;;;;;;;27.17;15.20;;;;;;;;;;4973963;28;20086;-71
2023/02/08 13:25:20;;;;;;;28.17;14.80;;;;;;;;;;4972370;28;20031;-69
2023/02/08 13:27:46;;;;;;;39.00;18.33;;;;;;;;;;4973761;28;20062;-69
2023/02/08 13:30:17;;;;;;;32.40;16.27;;;;;;;;;;4974567;28;20023;-70
2023/02/08 13:32:45;;;;;;;36.17;16.15;;;;;;;;;;4972838;28;20343;-69
2023/02/08 13:35:11;;;;;;;30.45;17.33;;;;;;;;;;4973778;28;20035;-69
2023/02/08 13:37:37;;;;;;;25.92;14.48;;;;;;;;;;4971395;28;20507;-69
2023/02/08 13:40:03;;;;;;;30.10;15.43;;;;;;;;;;4973470;28;20448;-69
2023/02/08 13:42:29;;;;;;;27.52;14.93;;;;;;;;;;4973295;28;20043;-70
2023/02/08 13:44:55;;;;;;;29.25;15.38;;;;;;;;;;4973423;28;20093;-68
2023/02/08 13:47:23;;;;;;;31.27;16.90;;;;;;;;;;4972671;28;20539;-68
2023/02/08 13:49:49;;;;;;;25.60;14.73;;;;;;;;;;4973561;28;20073;-70
2023/02/08 13:52:35;;;;;;;28.92;15.57;;;;;;;;;;4971876;28;20122;-70
2023/02/08 13:55:19;;;;;;;33.50;15.50;;;;;;;;;;4973405;28;20065;-71
2023/02/08 13:57:52;;;;;;;30.08;14.18;;;;;;;;;;4972285;28;20034;-69
2023/02/08 14:00:26;;;;;;;31.70;16.52;;;;;;;;;;4972584;28;20505;-70
2023/02/08 14:03:00;;;;;;;34.15;14.57;;;;;;;;;;4973024;28;20510;-70
2023/02/08 14:05:44;;;;;;;27.92;14.07;;;;;;;;;;4973163;28;20031;-70
2023/02/08 14:08:28;;;;;;;24.33;13.25;;;;;;;;;;4970915;28;20065;-70
2023/02/08 14:11:03;;;;;;;26.50;13.15;;;;;;;;;;4973103;28;20073;-70
2023/02/08 14:13:32;;;;;;;22.73;13.20;;;;;;;;;;4973058;28;20034;-70
2023/02/08 14:16:17;;;;;;;28.02;13.98;;;;;;;;;;4973025;28;20531;-68
2023/02/08 14:18:50;;;;;;;24.02;12.95;;;;;;;;;;4972129;28;20022;-71
2023/02/08 14:21:26;;;;;;;26.33;13.23;;;;;;;;;;4971730;28;20023;-69
2023/02/08 14:23:59;;;;;;;26.15;12.63;;;;;;;;;;4973659;28;20026;-70
2023/02/08 14:26:26;;;;;;;25.77;13.38;;;;;;;;;;4974095;28;20058;-70
2023/02/08 14:28:54;;;;;;;24.20;12.45;;;;;;;;;;4972299;28;20321;-69
2023/02/08 14:31:22;;;;;;;26.50;14.25;;;;;;;;;;4972625;28;20065;-70
2023/02/08 14:33:54;;;;;;;29.90;15.85;;;;;;;;;;4973657;28;20034;-71